Time;durP1;ratioP1;P1;durP2;ratioP2;P2;SDS_P1;SDS_P2;PMS_P1;PMS_P2;Temp;Humidity;BMP_temperature;BMP_pressure;BME280_temperature;BME280_humidity;BME280_pressure;Samples;Min_cycle;Max_cycle;Signal;HPM_P1;HPM_P2
2024/01/20 00:00:22;;;;;;;9.60;5.30;;;;;;;-0.78;90.89;100843.61;183320;1236;46176;-82
2024/01/20 00:04:44;;;;;;;10.90;5.20;;;;;;;-0.83;91.14;100840.42;182286;1234;46047;-82
2024/01/20 00:08:45;;;;;;;12.70;5.40;;;;;;;-0.86;91.13;100840.67;183134;1234;45867;-81
2024/01/20 00:12:48;;;;;;;16.10;5.40;;;;;;;-0.91;91.13;100845.84;183226;1234;57991;-82
2024/01/20 00:16:50;;;;;;;12.80;5.90;;;;;;;-0.96;90.44;100851.02;182490;1236;46042;-79
2024/01/20 00:20:52;;;;;;;9.30;5.50;;;;;;;-1.02;90.55;100850.98;185406;1233;44073;-81
2024/01/20 00:24:58;;;;;;;9.70;6.10;;;;;;;-1.08;90.46;100847.84;186192;1235;43790;-81
2024/01/20 00:29:01;;;;;;;10.20;5.20;;;;;;;-1.14;90.41;100843.80;185437;1234;46042;-78
2024/01/20 00:33:03;;;;;;;15.80;7.00;;;;;;;-1.17;89.97;100848.04;183638;1233;59642;-80
2024/01/20 00:37:05;;;;;;;14.40;6.20;;;;;;;-1.19;89.98;100849.83;182272;1236;45985;-80
2024/01/20 00:41:07;;;;;;;12.40;5.80;;;;;;;-1.24;90.10;100848.55;182451;1232;45979;-81
2024/01/20 00:45:09;;;;;;;11.00;5.00;;;;;;;-1.26;90.70;100845.98;182360;1233;45817;-81
2024/01/20 00:49:11;;;;;;;12.30;6.60;;;;;;;-1.28;90.73;100851.60;181538;1235;45994;-82
2024/01/20 00:53:13;;;;;;;14.50;6.00;;;;;;;-1.31;90.73;100858.46;182037;1236;59411;-81
2024/01/20 00:57:15;;;;;;;9.70;7.00;;;;;;;-1.35;90.04;100866.40;182773;1236;46102;-81
2024/01/20 01:01:16;;;;;;;12.40;5.00;;;;;;;-1.39;90.36;100868.20;185901;1232;45922;-82
2024/01/20 01:05:18;;;;;;;12.70;4.20;;;;;;;-1.41;90.55;100871.90;183105;1236;46068;-82
2024/01/20 01:09:22;;;;;;;7.10;5.40;;;;;;;-1.42;90.50;100876.46;182625;1232;46071;-85
2024/01/20 01:13:23;;;;;;;7.00;6.30;;;;;;;-1.42;90.53;100882.38;183329;1234;60173;-83
2024/01/20 01:17:25;;;;;;;13.20;6.20;;;;;;;-1.42;90.82;100884.10;181590;1236;46062;-82
2024/01/20 01:21:28;;;;;;;7.30;5.10;;;;;;;-1.40;90.89;100888.59;182626;1236;46060;-81
2024/01/20 01:25:30;;;;;;;11.30;4.50;;;;;;;-1.37;90.40;100890.27;182684;1232;46137;-82
2024/01/20 01:29:32;;;;;;;8.20;4.90;;;;;;;-1.38;90.49;100886.29;182632;1236;46070;-82
2024/01/20 01:33:36;;;;;;;9.40;4.80;;;;;;;-1.38;90.57;100891.50;182768;1232;59690;-81
2024/01/20 01:37:38;;;;;;;6.40;4.10;;;;;;;-1.41;90.12;100893.14;182024;1232;46634;-82
2024/01/20 01:41:39;;;;;;;8.80;5.10;;;;;;;-1.38;90.28;100891.52;183265;1236;46059;-81
2024/01/20 01:45:41;;;;;;;9.30;3.40;;;;;;;-1.36;89.88;100889.73;182870;1232;45920;-82
2024/01/20 01:49:43;;;;;;;12.90;5.10;;;;;;;-1.38;89.94;100894.99;181868;1232;46024;-81
2024/01/20 01:53:47;;;;;;;7.80;4.30;;;;;;;-1.38;90.02;100889.60;181881;1232;59281;-82
2024/01/20 01:57:52;;;;;;;10.10;5.70;;;;;;;-1.36;90.11;100893.55;181543;1236;46260;-82
2024/01/20 02:01:54;;;;;;;7.10;5.40;;;;;;;-1.33;90.14;100902.54;182525;1236;46069;-82
2024/01/20 02:05:56;;;;;;;10.10;4.50;;;;;;;-1.30;90.59;100905.08;182377;1236;46066;-83
2024/01/20 02:09:58;;;;;;;13.10;5.70;;;;;;;-1.26;90.46;100906.21;182959;1232;46047;-82
2024/01/20 02:14:00;;;;;;;6.80;5.80;;;;;;;-1.25;90.40;100904.27;182145;1232;59362;-82
2024/01/20 02:18:02;;;;;;;8.20;3.90;;;;;;;-1.26;90.64;100907.61;181866;1236;45928;-81
2024/01/20 02:22:12;;;;;;;9.70;4.70;;;;;;;-1.24;90.99;100901.12;181595;1232;46429;-82
2024/01/20 02:26:13;;;;;;;8.90;4.40;;;;;;;-1.22;90.94;100896.55;182350;1236;46076;-82
2024/01/20 02:30:15;;;;;;;11.50;4.80;;;;;;;-1.19;91.24;100902.91;182007;1236;45986;-81
2024/01/20 02:34:17;;;;;;;11.40;3.90;;;;;;;-1.15;90.98;100908.22;181643;1232;57987;-81
2024/01/20 02:38:20;;;;;;;6.60;4.30;;;;;;;-1.11;90.70;100898.02;181690;1237;46072;-81
2024/01/20 02:42:22;;;;;;;6.80;5.20;;;;;;;-1.00;90.16;100900.39;182403;1232;46035;-81
2024/01/20 02:46:24;;;;;;;9.30;2.70;;;;;;;-0.98;89.75;100904.52;182491;1232;46109;-81
2024/01/20 02:50:26;;;;;;;7.20;4.50;;;;;;;-0.93;89.50;100904.95;184553;1233;45947;-81
2024/01/20 02:54:28;;;;;;;6.90;3.70;;;;;;;-0.91;89.03;100905.41;183957;1233;59656;-81
2024/01/20 02:58:29;;;;;;;6.40;4.70;;;;;;;-0.89;89.09;100914.41;183580;1232;45953;-81
2024/01/20 03:02:31;;;;;;;5.90;3.80;;;;;;;-0.87;88.42;100914.19;184814;1232;46091;-78
2024/01/20 03:06:33;;;;;;;9.60;3.70;;;;;;;-0.83;88.06;100918.64;182599;1234;45960;-78
2024/01/20 03:10:35;;;;;;;5.70;3.80;;;;;;;-0.83;87.59;100916.70;181747;1232;45975;-78
2024/01/20 03:14:36;;;;;;;11.10;4.50;;;;;;;-0.81;87.15;100921.71;182668;1232;57981;-78
2024/01/20 03:18:39;;;;;;;7.20;3.70;;;;;;;-0.86;87.26;100922.52;182579;1232;45948;-78
2024/01/20 03:22:41;;;;;;;8.00;3.20;;;;;;;-0.88;87.30;100925.53;181685;1234;46092;-79
2024/01/20 03:26:47;;;;;;;13.60;4.50;;;;;;;-0.92;87.19;100927.39;182459;1234;46174;-81
2024/01/20 03:30:49;;;;;;;13.00;4.70;;;;;;;-0.94;87.45;100925.69;181648;1237;46503;-80
2024/01/20 03:34:51;;;;;;;7.80;4.90;;;;;;;-0.96;87.35;100935.30;182001;1234;58127;-80
2024/01/20 03:38:52;;;;;;;11.00;3.40;;;;;;;-0.94;86.86;100942.77;182016;1233;46065;-80
2024/01/20 03:42:54;;;;;;;6.50;3.70;;;;;;;-0.92;86.81;100935.20;181860;1236;46171;-80
2024/01/20 03:46:57;;;;;;;7.40;3.90;;;;;;;-0.87;86.65;100930.03;181618;1237;46158;-80
2024/01/20 03:50:59;;;;;;;8.60;5.10;;;;;;;-0.84;86.36;100929.60;181490;1237;46073;-81
2024/01/20 03:55:01;;;;;;;12.20;4.70;;;;;;;-0.83;85.96;100943.02;181603;1233;59191;-81
2024/01/20 03:59:03;;;;;;;9.90;3.70;;;;;;;-0.83;85.94;100952.77;181704;1233;46206;-82
2024/01/20 04:03:04;;;;;;;5.10;2.80;;;;;;;-0.83;85.43;100957.11;181551;1232;45963;-81
2024/01/20 04:07:07;;;;;;;14.30;4.10;;;;;;;-0.88;85.68;100968.20;181440;1236;45972;-81
2024/01/20 04:11:09;;;;;;;6.30;4.70;;;;;;;-0.93;85.76;100976.16;181656;1232;45957;-81
2024/01/20 04:15:10;;;;;;;7.00;3.40;;;;;;;-0.96;85.97;100979.19;182595;1232;59956;-84
2024/01/20 04:19:12;;;;;;;6.10;3.80;;;;;;;-0.98;85.81;100982.87;182919;1233;46072;-84
2024/01/20 04:23:14;;;;;;;6.70;3.50;;;;;;;-0.99;85.62;100986.55;183265;1232;46039;-85
2024/01/20 04:27:16;;;;;;;4.40;3.90;;;;;;;-1.01;85.25;100990.23;183892;1232;45915;-84
2024/01/20 04:31:18;;;;;;;10.80;5.00;;;;;;;-1.04;85.30;100992.06;183068;1232;45930;-83
2024/01/20 04:35:20;;;;;;;5.90;3.50;;;;;;;-1.09;85.57;101002.43;182824;1232;59701;-83
2024/01/20 04:39:22;;;;;;;19.50;4.70;;;;;;;-1.09;85.46;101002.10;184869;1233;45931;-84
2024/01/20 04:43:24;;;;;;;5.10;3.40;;;;;;;-1.12;85.32;101006.52;185822;1234;45976;-83
2024/01/20 04:47:26;;;;;;;7.40;5.50;;;;;;;-1.12;85.35;101015.58;183147;1232;46040;-82
2024/01/20 04:51:27;;;;;;;7.50;5.30;;;;;;;-1.12;85.30;101020.27;183224;1232;45918;-82
2024/01/20 04:55:29;;;;;;;10.80;4.60;;;;;;;-1.13;85.52;101022.73;183202;1232;58144;-82
2024/01/20 04:59:31;;;;;;;7.00;4.40;;;;;;;-1.09;85.46;101029.94;182768;1232;46061;-84
2024/01/20 05:03:33;;;;;;;8.20;4.60;;;;;;;-1.04;85.67;101030.52;182335;1233;46170;-84
2024/01/20 05:07:35;;;;;;;11.80;5.40;;;;;;;-0.92;85.50;101032.02;182816;1232;46100;-83
2024/01/20 05:11:37;;;;;;;14.10;6.10;;;;;;;-0.78;85.46;101036.94;182498;1232;46108;-83
2024/01/20 05:15:39;;;;;;;12.30;5.00;;;;;;;-0.72;84.22;101035.59;182921;1236;59234;-83
2024/01/20 05:19:41;;;;;;;8.00;4.00;;;;;;;-0.72;83.37;101033.50;183475;1236;45946;-83
2024/01/20 05:23:43;;;;;;;10.30;5.60;;;;;;;-0.79;83.10;101032.78;183077;1232;46075;-83
2024/01/20 05:27:45;;;;;;;7.00;4.00;;;;;;;-0.86;83.47;101036.59;182653;1232;46290;-82
2024/01/20 05:31:46;;;;;;;10.80;5.50;;;;;;;-0.91;83.75;101031.47;182709;1234;46040;-83
2024/01/20 05:35:48;;;;;;;6.60;3.60;;;;;;;-0.94;83.79;101035.03;182797;1234;57276;-82
2024/01/20 05:39:51;;;;;;;10.00;5.00;;;;;;;-0.95;84.12;101040.45;182485;1234;46068;-83
2024/01/20 05:43:53;;;;;;;5.90;3.30;;;;;;;-0.96;83.42;101046.93;182888;1237;45976;-82
2024/01/20 05:47:54;;;;;;;5.70;3.20;;;;;;;-0.99;83.62;101053.08;183020;1232;45943;-83
2024/01/20 05:51:56;;;;;;;16.20;4.20;;;;;;;-1.04;83.73;101053.69;183034;1232;46440;-83
2024/01/20 05:55:58;;;;;;;12.80;5.20;;;;;;;-1.04;83.72;101058.39;182577;1237;57063;-82
2024/01/20 05:59:59;;;;;;;8.90;5.90;;;;;;;-1.04;83.50;101065.69;183045;1237;46095;-82
2024/01/20 06:04:03;;;;;;;8.70;4.60;;;;;;;-1.02;83.08;101069.48;182808;1232;46084;-83
2024/01/20 06:08:05;;;;;;;6.60;3.90;;;;;;;-1.01;82.92;101079.56;182693;1232;46685;-83
2024/01/20 06:12:07;;;;;;;3.70;3.30;;;;;;;-1.02;82.64;101085.50;182865;1232;46045;-82
2024/01/20 06:16:11;;;;;;;9.50;4.00;;;;;;;-1.07;82.32;101094.50;182577;1235;59218;-82
2024/01/20 06:20:15;;;;;;;6.90;4.70;;;;;;;-1.09;82.85;101097.50;183144;1236;46068;-83
2024/01/20 06:24:17;;;;;;;6.10;4.00;;;;;;;-1.13;82.52;101101.59;182551;1235;46101;-81
2024/01/20 06:28:19;;;;;;;9.80;4.90;;;;;;;-1.13;82.33;101105.75;181634;1234;46050;-81
2024/01/20 06:32:20;;;;;;;8.20;4.20;;;;;;;-1.12;82.27;101106.09;185599;1232;45855;-82
2024/01/20 06:36:25;;;;;;;8.40;4.60;;;;;;;-1.12;82.24;101113.41;183031;1232;57969;-83
2024/01/20 06:40:26;;;;;;;6.00;5.20;;;;;;;-1.13;82.33;101120.20;182801;1235;45841;-81
2024/01/20 06:44:28;;;;;;;9.30;6.70;;;;;;;-1.20;82.14;101118.61;182522;1235;46003;-81
2024/01/20 06:48:33;;;;;;;5.20;3.30;;;;;;;-1.24;82.59;101131.73;182457;1236;45965;-81
2024/01/20 06:52:35;;;;;;;9.10;5.90;;;;;;;-1.30;82.61;101134.97;182551;1236;45930;-81
2024/01/20 06:56:37;;;;;;;5.60;4.60;;;;;;;-1.30;82.77;101144.37;182594;1236;59133;-81
2024/01/20 07:00:39;;;;;;;7.80;4.60;;;;;;;-1.32;83.01;101144.92;182751;1237;46079;-81
2024/01/20 07:04:41;;;;;;;9.00;5.00;;;;;;;-1.33;83.01;101146.52;182104;1237;45960;-81
2024/01/20 07:08:43;;;;;;;8.40;3.90;;;;;;;-1.33;82.90;101136.41;181854;1236;46076;-82
2024/01/20 07:12:45;;;;;;;8.60;4.30;;;;;;;-1.30;83.45;101130.62;181671;1233;46064;-82
2024/01/20 07:16:47;;;;;;;10.60;5.20;;;;;;;-1.23;83.29;101124.40;181753;1234;57943;-81
2024/01/20 07:20:50;;;;;;;9.80;5.50;;;;;;;-1.12;83.18;101122.64;181873;1237;45941;-81
2024/01/20 07:24:54;;;;;;;4.90;3.30;;;;;;;-1.01;82.79;101120.84;182221;1232;46077;-81
2024/01/20 07:28:55;;;;;;;6.70;5.00;;;;;;;-0.96;82.21;101124.75;182083;1237;46081;-80
2024/01/20 07:32:59;;;;;;;7.00;3.50;;;;;;;-0.90;82.09;101133.50;183294;1236;46043;-81
2024/01/20 07:37:01;;;;;;;9.10;4.70;;;;;;;-0.85;81.96;101133.92;182399;1232;57802;-81
2024/01/20 07:41:03;;;;;;;7.90;5.90;;;;;;;-0.79;81.69;101132.74;181819;1232;46087;-82
2024/01/20 07:45:06;;;;;;;7.80;4.30;;;;;;;-0.72;81.62;101144.27;181997;1232;45886;-82
2024/01/20 07:49:08;;;;;;;7.90;4.30;;;;;;;-0.65;81.22;101149.36;182888;1233;46067;-82
2024/01/20 07:53:10;;;;;;;7.80;4.70;;;;;;;-0.63;81.22;101152.11;182760;1232;46050;-82
2024/01/20 07:57:12;;;;;;;15.70;4.40;;;;;;;-0.56;81.35;101153.19;183097;1232;59057;-82
2024/01/20 08:01:16;;;;;;;4.90;3.10;;;;;;;-0.50;81.05;101157.58;182921;1232;46032;-82
2024/01/20 08:05:18;;;;;;;7.80;4.40;;;;;;;-0.39;81.01;101160.30;183054;1236;46014;-82
2024/01/20 08:09:20;;;;;;;5.60;3.70;;;;;;;-0.33;80.57;101158.27;181814;1236;46151;-81
2024/01/20 08:13:22;;;;;;;9.10;4.20;;;;;;;-0.21;80.25;101162.02;182358;1232;46049;-82
2024/01/20 08:17:23;;;;;;;5.80;3.70;;;;;;;-0.13;79.92;101169.66;182930;1232;60055;-81
2024/01/20 08:21:27;;;;;;;9.20;4.20;;;;;;;-0.04;79.77;101170.50;184011;1232;45784;-81
2024/01/20 08:25:29;;;;;;;8.60;4.90;;;;;;;0.06;79.21;101175.33;184781;1232;45912;-81
2024/01/20 08:29:31;;;;;;;6.40;4.90;;;;;;;0.08;79.08;101177.38;183068;1232;46062;-80
2024/01/20 08:33:33;;;;;;;8.50;5.10;;;;;;;0.16;78.49;101180.31;182602;1237;46165;-80
2024/01/20 08:37:35;;;;;;;10.00;5.00;;;;;;;0.21;78.50;101183.87;182550;1233;57956;-81
2024/01/20 08:41:37;;;;;;;8.70;4.80;;;;;;;0.26;78.65;101188.98;183451;1232;45943;-80
2024/01/20 08:45:38;;;;;;;9.50;4.40;;;;;;;0.34;78.59;101187.91;184248;1232;45942;-80
2024/01/20 08:49:40;;;;;;;8.90;4.80;;;;;;;0.39;78.49;101196.00;182167;1232;45981;-80
2024/01/20 08:53:43;;;;;;;10.30;5.50;;;;;;;0.38;78.26;101198.30;183176;1232;45882;-80
2024/01/20 08:57:45;;;;;;;8.50;5.40;;;;;;;0.42;78.26;101203.27;182775;1232;58487;-81
2024/01/20 09:01:46;;;;;;;7.10;4.90;;;;;;;0.42;78.35;101203.08;182336;1232;46043;-81
2024/01/20 09:05:48;;;;;;;8.40;3.60;;;;;;;0.34;79.40;101199.25;182081;1232;46058;-82
2024/01/20 09:09:52;;;;;;;6.00;4.10;;;;;;;0.41;79.34;101209.05;181879;1232;46059;-82
2024/01/20 09:13:54;;;;;;;8.60;4.10;;;;;;;0.48;79.00;101209.92;183760;1232;44621;-81
2024/01/20 09:17:55;;;;;;;10.50;4.90;;;;;;;0.49;79.31;101214.97;182977;1236;60300;-82
2024/01/20 09:21:57;;;;;;;8.60;4.80;;;;;;;0.57;79.51;101209.87;182995;1232;46052;-81
2024/01/20 09:25:59;;;;;;;7.80;4.70;;;;;;;0.64;79.35;101200.10;184292;1232;46049;-81
2024/01/20 09:30:02;;;;;;;7.40;4.20;;;;;;;0.70;79.21;101208.48;183247;1236;44915;-80
2024/01/20 09:34:04;;;;;;;5.90;4.10;;;;;;;0.76;78.79;101204.84;183123;1237;46011;-80
2024/01/20 09:38:06;;;;;;;6.50;4.50;;;;;;;0.91;78.84;101212.84;183172;1235;58578;-81
2024/01/20 09:42:08;;;;;;;9.90;5.40;;;;;;;0.99;78.14;101208.42;181960;1236;46075;-81
2024/01/20 09:46:10;;;;;;;10.60;7.10;;;;;;;1.06;77.80;101203.19;184258;1232;45959;-81
2024/01/20 09:50:12;;;;;;;11.00;7.50;;;;;;;1.13;77.98;101212.08;183219;1233;45952;-80
2024/01/20 09:54:16;;;;;;;7.90;4.20;;;;;;;1.12;78.05;101204.06;182474;1236;210800;-80
2024/01/20 09:58:20;;;;;;;5.50;4.30;;;;;;;1.12;77.97;101200.93;182162;1236;59933;-82
2024/01/20 10:02:25;;;;;;;6.80;4.20;;;;;;;1.15;77.84;101195.77;182121;1232;46691;-82
2024/01/20 10:06:27;;;;;;;7.10;4.60;;;;;;;1.20;77.67;101199.32;182143;1232;46064;-82
2024/01/20 10:10:31;;;;;;;4.90;3.70;;;;;;;1.21;77.50;101202.78;182777;1232;46000;-82
2024/01/20 10:14:33;;;;;;;8.40;4.90;;;;;;;1.24;77.70;101201.80;184667;1232;44604;-83
2024/01/20 10:18:35;;;;;;;6.20;5.10;;;;;;;1.32;77.43;101200.88;185319;1234;58134;-82
2024/01/20 10:22:38;;;;;;;6.80;4.40;;;;;;;1.37;76.74;101200.92;182734;1232;46132;-83
2024/01/20 10:26:41;;;;;;;5.30;4.50;;;;;;;1.43;77.19;101201.28;182741;1232;46062;-83
2024/01/20 10:30:43;;;;;;;5.60;3.50;;;;;;;1.47;77.09;101202.92;182609;1232;46048;-84
2024/01/20 10:34:45;;;;;;;10.90;3.60;;;;;;;1.52;76.37;101204.00;182994;1232;46055;-80
2024/01/20 10:38:53;;;;;;;4.30;3.20;;;;;;;1.55;76.60;101204.95;182174;1233;59489;-79
2024/01/20 10:43:00;;;;;;;8.10;4.50;;;;;;;1.56;76.18;101201.61;183321;1232;45965;-84
2024/01/20 10:47:08;;;;;;;7.60;3.70;;;;;;;1.61;76.32;101198.14;182983;1236;45956;-84
2024/01/20 10:51:14;;;;;;;12.30;4.40;;;;;;;1.65;76.76;101199.23;182652;1232;46068;-83
2024/01/20 10:55:18;;;;;;;8.20;4.40;;;;;;;1.58;76.28;101202.08;182545;1236;46116;-84
2024/01/20 10:59:25;;;;;;;7.70;4.70;;;;;;;1.61;77.23;101190.79;182840;1237;60045;-82
2024/01/20 11:03:27;;;;;;;;;;;;;;;1.63;77.57;101189.52;181930;1232;46120;-81
2024/01/20 11:07:35;;;;;;;8.80;4.40;;;;;;;1.68;76.46;101182.56;183164;1232;45844;-82
2024/01/20 11:11:38;;;;;;;10.50;5.00;;;;;;;1.72;76.74;101171.23;182844;1233;46119;-83
2024/01/20 11:15:42;;;;;;;8.60;5.60;;;;;;;1.75;77.09;101176.55;183565;1232;46014;-84
2024/01/20 11:19:44;;;;;;;5.80;3.90;;;;;;;1.76;76.63;101179.66;183305;1232;57990;-82
2024/01/20 11:23:59;;;;;;;8.90;4.30;;;;;;;1.81;77.34;101177.77;183123;1232;46132;-83
2024/01/20 11:28:01;;;;;;;6.00;3.90;;;;;;;1.81;77.28;101168.69;182964;1235;45998;-83
2024/01/20 11:32:03;;;;;;;8.80;4.60;;;;;;;1.85;77.54;101166.62;182994;1232;46072;-83
2024/01/20 11:36:05;;;;;;;12.00;5.60;;;;;;;1.92;78.01;101167.13;183364;1232;45995;-83
2024/01/20 11:40:08;;;;;;;6.30;4.20;;;;;;;1.89;77.81;101157.78;183102;1232;57950;-83
2024/01/20 11:44:10;;;;;;;7.50;3.80;;;;;;;1.91;78.37;101162.25;183029;1232;45966;-84
2024/01/20 11:48:17;;;;;;;8.60;4.50;;;;;;;1.88;78.83;101166.21;182699;1234;46035;-83
2024/01/20 11:52:19;;;;;;;;;;;;;;;1.82;78.72;101153.61;182750;1232;45990;-83
2024/01/20 11:56:22;;;;;;;9.70;5.40;;;;;;;1.82;78.49;101155.86;182827;1232;45913;-83
2024/01/20 12:00:25;;;;;;;12.50;4.60;;;;;;;1.83;79.10;101157.93;182773;1235;59289;-83
2024/01/20 12:04:27;;;;;;;6.40;4.40;;;;;;;1.84;80.01;101154.59;183363;1232;45891;-84
2024/01/20 12:08:29;;;;;;;10.10;5.60;;;;;;;1.89;79.96;101153.41;184839;1232;46060;-81
2024/01/20 12:12:31;;;;;;;7.20;4.20;;;;;;;1.96;79.42;101143.92;185416;1236;46073;-82
2024/01/20 12:16:33;;;;;;;7.50;5.10;;;;;;;1.99;79.72;101146.79;184577;1232;46043;-81
2024/01/20 12:20:38;;;;;;;8.90;7.00;;;;;;;1.98;79.62;101148.56;182516;1236;59711;-81
2024/01/20 12:24:45;;;;;;;8.50;4.70;;;;;;;2.00;79.83;101148.67;183585;1232;46145;-80
2024/01/20 12:28:50;;;;;;;7.00;4.50;;;;;;;2.07;79.44;101155.27;183525;1232;45968;-81
2024/01/20 12:32:52;;;;;;;21.50;5.90;;;;;;;2.11;79.49;101165.27;182859;1232;46125;-83
2024/01/20 12:36:54;;;;;;;10.50;5.60;;;;;;;2.12;79.48;101172.77;183063;1235;46068;-81
2024/01/20 12:40:56;;;;;;;7.70;4.90;;;;;;;2.04;79.06;101176.54;181937;1236;57771;-83
2024/01/20 12:44:58;;;;;;;9.70;5.50;;;;;;;2.04;79.55;101181.61;182704;1232;46081;-83
2024/01/20 12:49:00;;;;;;;9.00;6.30;;;;;;;2.01;79.68;101179.08;182814;1232;46096;-82
2024/01/20 12:53:02;;;;;;;6.20;4.10;;;;;;;1.97;79.38;101177.11;182998;1232;46103;-82
2024/01/20 12:57:04;;;;;;;14.80;5.10;;;;;;;1.90;79.23;101178.19;182978;1237;45936;-83
2024/01/20 13:01:07;;;;;;;7.10;4.90;;;;;;;1.95;80.11;101181.20;183320;1232;57919;-84
2024/01/20 13:05:09;;;;;;;8.00;5.30;;;;;;;1.94;80.10;101181.05;183674;1232;45972;-81
2024/01/20 13:09:12;;;;;;;12.90;5.80;;;;;;;1.93;80.58;101187.73;183524;1232;45998;-82
2024/01/20 13:13:13;;;;;;;10.20;5.60;;;;;;;1.89;80.68;101198.69;183907;1232;44784;-81
2024/01/20 13:17:15;;;;;;;10.30;5.70;;;;;;;1.91;80.75;101189.73;183760;1237;45925;-81
2024/01/20 13:21:17;;;;;;;11.50;6.10;;;;;;;1.88;80.37;101197.16;184147;1236;59117;-81
2024/01/20 13:25:19;;;;;;;8.40;7.50;;;;;;;1.86;80.39;101196.69;182478;1236;46081;-81
2024/01/20 13:29:20;;;;;;;6.40;5.30;;;;;;;1.86;80.61;101201.59;183712;1232;46046;-81
2024/01/20 13:33:24;;;;;;;9.30;4.80;;;;;;;1.88;80.86;101203.46;183786;1232;45936;-81
2024/01/20 13:37:26;;;;;;;6.40;4.80;;;;;;;1.85;80.38;101201.09;183816;1232;46045;-80
2024/01/20 13:41:30;;;;;;;10.80;5.80;;;;;;;1.79;80.29;101201.29;183871;1237;59198;-80
2024/01/20 13:45:31;;;;;;;10.30;5.00;;;;;;;1.77;80.27;101209.21;185743;1232;43850;-80
2024/01/20 13:49:35;;;;;;;13.20;7.50;;;;;;;1.70;79.95;101206.25;184298;1232;44134;-81
2024/01/20 13:53:37;;;;;;;14.30;6.60;;;;;;;1.67;80.11;101198.13;182848;1233;45957;-82
2024/01/20 13:57:39;;;;;;;11.20;7.10;;;;;;;1.59;79.81;101197.48;182960;1232;44106;-83
2024/01/20 14:01:42;;;;;;;8.30;6.90;;;;;;;1.61;80.46;101197.10;182530;1232;58599;-82
2024/01/20 14:05:46;;;;;;;13.30;5.50;;;;;;;1.65;80.44;101210.23;185024;1232;44074;-81
2024/01/20 14:09:48;;;;;;;8.90;5.60;;;;;;;1.41;81.26;101221.95;185106;1232;43975;-81
2024/01/20 14:13:49;;;;;;;10.10;6.00;;;;;;;1.20;81.88;101225.52;184615;1232;44037;-81
2024/01/20 14:17:51;;;;;;;11.80;6.30;;;;;;;1.08;82.04;101223.22;183792;1232;45985;-80
2024/01/20 14:21:53;;;;;;;8.10;5.90;;;;;;;1.00;82.29;101226.21;184758;1232;58185;-81
2024/01/20 14:25:54;;;;;;;10.20;6.70;;;;;;;0.94;82.43;101219.38;184218;1233;46072;-80
2024/01/20 14:29:56;;;;;;;14.50;7.90;;;;;;;0.90;83.18;101238.54;182639;1232;46051;-81
2024/01/20 14:33:59;;;;;;;9.90;6.20;;;;;;;0.81;83.08;101245.23;182263;1232;46136;-80
2024/01/20 14:38:00;;;;;;;12.50;6.20;;;;;;;0.78;83.51;101250.20;184345;1232;45970;-81
2024/01/20 14:42:02;;;;;;;18.60;6.70;;;;;;;0.74;83.77;101260.59;182943;1232;57803;-81
2024/01/20 14:46:04;;;;;;;7.50;5.20;;;;;;;0.66;83.88;101264.80;182249;1236;45982;-81
2024/01/20 14:50:07;;;;;;;9.90;5.60;;;;;;;0.65;84.65;101265.02;182977;1232;46082;-81
2024/01/20 14:54:08;;;;;;;7.30;5.90;;;;;;;0.59;84.69;101269.86;182857;1231;45954;-81
2024/01/20 14:58:11;;;;;;;10.90;6.70;;;;;;;0.53;85.37;101275.23;183596;1234;46078;-82
2024/01/20 15:02:12;;;;;;;10.70;6.30;;;;;;;0.53;85.11;101276.65;182136;1232;57759;-81
2024/01/20 15:06:14;;;;;;;14.30;9.00;;;;;;;0.43;85.66;101280.55;181888;1232;46101;-81
2024/01/20 15:10:16;;;;;;;13.80;7.00;;;;;;;0.30;85.76;101279.09;182814;1232;46072;-81
2024/01/20 15:14:17;;;;;;;11.60;7.30;;;;;;;0.22;86.36;101284.34;182937;1232;45950;-81
2024/01/20 15:18:19;;;;;;;15.20;7.90;;;;;;;0.19;86.67;101295.75;181322;1232;45997;-81
2024/01/20 15:22:21;;;;;;;16.20;6.90;;;;;;;0.14;87.32;101295.67;182325;1232;58075;-81
2024/01/20 15:26:23;;;;;;;12.30;6.10;;;;;;;0.09;87.34;101297.72;182456;1236;46154;-82
2024/01/20 15:30:25;;;;;;;11.30;7.20;;;;;;;0.02;87.58;101301.89;181854;1232;46056;-81
2024/01/20 15:34:26;;;;;;;14.90;7.40;;;;;;;0.00;87.84;101305.05;182304;1232;45977;-81
2024/01/20 15:38:28;;;;;;;10.90;7.10;;;;;;;0.00;88.00;101308.71;182077;1232;46072;-81
2024/01/20 15:42:30;;;;;;;13.20;9.80;;;;;;;0.02;87.92;101314.95;182554;1232;59351;-81
2024/01/20 15:46:32;;;;;;;18.40;6.70;;;;;;;-0.01;87.97;101320.94;181982;1232;46081;-81
2024/01/20 15:50:33;;;;;;;14.60;8.00;;;;;;;0.01;87.62;101328.23;181800;1233;45981;-81
2024/01/20 15:54:35;;;;;;;15.70;7.60;;;;;;;-0.01;87.84;101346.05;181907;1237;46119;-81
2024/01/20 15:58:37;;;;;;;14.00;8.00;;;;;;;-0.11;88.34;101348.17;182142;1237;46047;-80
2024/01/20 16:02:38;;;;;;;14.70;8.40;;;;;;;-0.15;88.97;101355.06;182176;1232;59112;-82
2024/01/20 16:06:40;;;;;;;11.30;6.10;;;;;;;-0.15;89.42;101356.78;181863;1232;45939;-81
2024/01/20 16:10:42;;;;;;;13.50;8.00;;;;;;;-0.20;89.49;101367.19;182210;1232;46084;-81
2024/01/20 16:14:43;;;;;;;13.20;7.60;;;;;;;-0.23;89.40;101364.80;182517;1235;46727;-81
2024/01/20 16:18:45;;;;;;;14.70;6.70;;;;;;;-0.23;89.56;101364.80;182516;1237;46021;-81
2024/01/20 16:22:47;;;;;;;11.60;6.00;;;;;;;-0.22;89.34;101368.09;181860;1232;57900;-80
2024/01/20 16:26:49;;;;;;;12.50;6.30;;;;;;;-0.20;89.13;101393.49;181869;1232;46759;-81
2024/01/20 16:30:50;;;;;;;13.70;8.00;;;;;;;-0.21;88.80;101395.45;182590;1236;45977;-81
2024/01/20 16:34:56;;;;;;;17.90;7.40;;;;;;;-0.30;89.14;101394.05;182429;1232;45856;-81
2024/01/20 16:38:57;;;;;;;12.80;6.30;;;;;;;-0.32;88.99;101402.63;182051;1236;46066;-81
2024/01/20 16:42:59;;;;;;;19.10;7.70;;;;;;;-0.34;89.38;101403.02;181908;1233;58475;-81
2024/01/20 16:47:01;;;;;;;19.80;8.70;;;;;;;-0.38;89.51;101409.70;182205;1232;46120;-81
2024/01/20 16:51:03;;;;;;;28.60;9.20;;;;;;;-0.44;89.78;101422.02;182726;1232;46004;-80
2024/01/20 16:55:17;;;;;;;10.90;7.40;;;;;;;-0.38;89.71;101427.66;181852;1232;46053;-80
2024/01/20 16:59:18;;;;;;;10.50;7.60;;;;;;;-0.37;89.37;101434.98;183049;1232;44760;-80
2024/01/20 17:03:20;;;;;;;12.90;6.00;;;;;;;-0.39;89.34;101439.70;182119;1232;59374;-81
2024/01/20 17:07:22;;;;;;;15.60;6.80;;;;;;;-0.31;88.90;101438.34;182525;1232;46061;-81
2024/01/20 17:11:24;;;;;;;11.40;7.70;;;;;;;-0.28;88.76;101444.58;183457;1232;46070;-81
2024/01/20 17:15:26;;;;;;;17.10;8.60;;;;;;;-0.24;88.39;101440.13;182290;1232;46166;-81
2024/01/20 17:19:30;;;;;;;8.90;5.80;;;;;;;-0.16;87.97;101442.44;182592;1232;46082;-81
2024/01/20 17:23:32;;;;;;;8.90;7.30;;;;;;;-0.05;87.60;101448.52;182389;1232;58563;-81
2024/01/20 17:27:40;;;;;;;8.90;7.00;;;;;;;-0.01;87.73;101450.70;182353;1237;46107;-81
2024/01/20 17:31:42;;;;;;;9.70;6.20;;;;;;;-0.06;88.04;101459.69;182550;1232;45936;-81
2024/01/20 17:35:43;;;;;;;11.40;8.10;;;;;;;-0.15;88.81;101462.47;181796;1236;46155;-81
2024/01/20 17:39:45;;;;;;;21.40;9.10;;;;;;;-0.22;90.03;101459.63;182223;1232;46064;-81
2024/01/20 17:43:47;;;;;;;15.30;9.70;;;;;;;-0.21;90.43;101455.76;182998;1232;58489;-81
2024/01/20 17:47:49;;;;;;;17.90;9.70;;;;;;;-0.20;90.54;101455.05;182181;1232;46182;-81
2024/01/20 17:51:51;;;;;;;12.10;6.50;;;;;;;-0.23;90.39;101460.15;182105;1232;45982;-81
2024/01/20 17:55:52;;;;;;;11.10;6.40;;;;;;;-0.24;89.98;101462.29;182200;1232;46072;-81
2024/01/20 17:59:55;;;;;;;16.20;8.20;;;;;;;-0.27;89.45;101470.88;182989;1232;46009;-80
2024/01/20 18:03:57;;;;;;;16.80;9.00;;;;;;;-0.25;89.25;101474.16;183489;1236;59689;-81
2024/01/20 18:07:59;;;;;;;10.70;6.40;;;;;;;-0.26;88.76;101486.54;182546;1232;46052;-80
2024/01/20 18:12:01;;;;;;;18.50;10.30;;;;;;;-0.31;88.78;101481.92;181744;1232;46078;-80
2024/01/20 18:16:03;;;;;;;9.40;7.70;;;;;;;-0.35;88.91;101489.50;182103;1236;46049;-80
2024/01/20 18:20:06;;;;;;;20.70;8.70;;;;;;;-0.40;88.92;101488.52;181564;1234;44704;-81
2024/01/20 18:24:08;;;;;;;11.20;8.00;;;;;;;-0.43;89.30;101490.84;182569;1237;59238;-80
2024/01/20 18:28:10;;;;;;;19.20;9.40;;;;;;;-0.38;89.26;101484.14;182635;1232;46000;-80
2024/01/20 18:32:12;;;;;;;22.20;10.70;;;;;;;-0.32;89.39;101489.96;182061;1232;46078;-80